Time;durP1;ratioP1;P1;durP2;ratioP2;P2;SDS_P1;SDS_P2;PMS_P1;PMS_P2;Temp;Humidity;BMP_temperature;BMP_pressure;BME280_temperature;BME280_humidity;BME280_pressure;Samples;Min_cycle;Max_cycle;Signal;HPM_P1;HPM_P2
2022/11/27 00:00:56;;;;;;;15.18;9.00;;;;;;;1.82;100.00;99774.44;15282665;19;20098;-59
2022/11/27 00:06:23;;;;;;;19.17;9.77;;;;;;;1.81;100.00;99759.47;15273989;19;20018;-59
2022/11/27 00:11:51;;;;;;;16.83;9.68;;;;;;;1.77;100.00;99762.31;15277989;19;20106;-58
2022/11/27 00:17:22;;;;;;;13.02;8.80;;;;;;;1.72;100.00;99762.53;15272169;19;20007;-59
2022/11/27 00:22:47;;;;;;;14.68;8.73;;;;;;;1.69;100.00;99744.09;15277534;19;20011;-61
2022/11/27 00:28:15;;;;;;;14.50;8.80;;;;;;;1.66;100.00;99734.44;15277440;19;20082;-56
2022/11/27 00:33:39;;;;;;;14.77;10.02;;;;;;;1.66;100.00;99717.66;15277669;19;20015;-59
2022/11/27 00:39:05;;;;;;;15.88;8.75;;;;;;;1.66;100.00;99702.56;15279279;19;20106;-60
2022/11/27 00:44:33;;;;;;;13.63;9.10;;;;;;;1.66;100.00;99696.41;15279198;19;20017;-59
2022/11/27 00:49:58;;;;;;;12.63;8.80;;;;;;;1.65;100.00;99694.69;15278489;19;20032;-59
2022/11/27 00:55:22;;;;;;;15.93;9.07;;;;;;;1.64;100.00;99687.63;15275939;19;20086;-57
2022/11/27 01:00:50;;;;;;;14.77;9.30;;;;;;;1.58;100.00;99691.44;15277638;19;20389;-58
2022/11/27 01:06:15;;;;;;;16.10;9.68;;;;;;;1.54;100.00;99677.47;15278330;19;20014;-57
2022/11/27 01:11:43;;;;;;;14.50;9.45;;;;;;;1.52;100.00;99687.28;15279187;19;20033;-58
2022/11/27 01:17:17;;;;;;;16.77;9.88;;;;;;;1.50;100.00;99689.16;15267175;19;20024;-59
2022/11/27 01:22:41;;;;;;;17.30;10.30;;;;;;;1.51;100.00;99688.22;15275919;19;20018;-57
2022/11/27 01:28:06;;;;;;;11.52;8.00;;;;;;;1.46;100.00;99692.03;15275676;19;20093;-59
2022/11/27 01:33:33;;;;;;;14.63;8.48;;;;;;;1.46;100.00;99700.88;15273568;19;20427;-59
2022/11/27 01:38:59;;;;;;;15.68;8.57;;;;;;;1.44;100.00;99688.56;15276560;19;20015;-58
2022/11/27 01:45:02;;;;;;;13.02;7.90;;;;;;;1.40;100.00;99679.06;15273919;19;20362;-59
2022/11/27 01:50:34;;;;;;;16.25;8.55;;;;;;;1.37;100.00;99666.75;15274444;19;20094;-59
2022/11/27 01:56:04;;;;;;;17.08;9.75;;;;;;;1.34;100.00;99658.97;15276709;19;20024;-60
2022/11/27 02:01:30;;;;;;;16.60;10.00;;;;;;;1.32;100.00;99656.34;15274157;19;20520;-59
2022/11/27 02:07:00;;;;;;;17.45;10.40;;;;;;;1.27;100.00;99652.19;15263796;19;20458;-57
2022/11/27 02:12:31;;;;;;;15.93;10.50;;;;;;;1.20;100.00;99647.19;15266431;19;20547;-59
2022/11/27 02:18:09;;;;;;;19.20;10.93;;;;;;;1.20;100.00;99651.63;15273024;19;20812;-58
2022/11/27 02:24:08;;;;;;;17.77;10.45;;;;;;;1.19;100.00;99637.50;15266379;19;20109;-59
2022/11/27 02:29:38;;;;;;;17.45;10.23;;;;;;;1.18;100.00;99638.44;15268579;19;20405;-59
2022/11/27 02:35:11;;;;;;;16.92;9.45;;;;;;;1.15;100.00;99641.22;15282326;19;20019;-55
2022/11/27 02:40:44;;;;;;;16.83;9.85;;;;;;;1.14;100.00;99650.09;15287972;19;20656;-59
2022/11/27 02:46:14;;;;;;;16.35;9.77;;;;;;;1.12;100.00;99644.00;15289402;19;20046;-58
2022/11/27 02:51:46;;;;;;;18.73;9.48;;;;;;;1.12;100.00;99632.53;15286017;19;20270;-59
2022/11/27 02:57:13;;;;;;;17.63;9.25;;;;;;;1.08;100.00;99626.53;15282076;19;20382;-58
2022/11/27 03:02:47;;;;;;;15.65;10.27;;;;;;;1.05;100.00;99637.28;15281307;19;20022;-59
2022/11/27 03:08:21;;;;;;;12.18;9.10;;;;;;;0.99;100.00;99638.41;15284281;19;20014;-57
2022/11/27 03:13:49;;;;;;;13.30;8.43;;;;;;;0.89;100.00;99622.03;15279213;19;20022;-58
2022/11/27 03:19:21;;;;;;;13.25;8.35;;;;;;;0.79;100.00;99626.03;15285086;19;20480;-59
2022/11/27 03:24:48;;;;;;;13.38;8.02;;;;;;;0.69;100.00;99619.44;15281628;19;20025;-59
2022/11/27 03:30:15;;;;;;;12.15;7.50;;;;;;;0.61;100.00;99619.78;15283500;19;20109;-58
2022/11/27 03:35:43;;;;;;;13.02;8.80;;;;;;;0.54;100.00;99615.69;15277079;19;20132;-60
2022/11/27 03:41:17;;;;;;;15.85;9.95;;;;;;;0.51;100.00;99610.50;15279133;19;20448;-60
2022/11/27 03:46:54;;;;;;;19.23;10.25;;;;;;;0.48;100.00;99605.34;15276215;19;20019;-62
2022/11/27 03:52:28;;;;;;;16.85;9.90;;;;;;;0.39;100.00;99596.88;15274320;19;20029;-61
2022/11/27 03:58:01;;;;;;;19.38;11.00;;;;;;;0.33;100.00;99591.84;15277080;19;20132;-62
2022/11/27 04:03:30;;;;;;;18.35;10.90;;;;;;;0.31;100.00;99588.41;15279299;19;20018;-59
2022/11/27 04:08:57;;;;;;;17.92;11.05;;;;;;;0.30;100.00;99578.72;15279684;19;20061;-59
2022/11/27 04:14:21;;;;;;;21.35;11.85;;;;;;;0.27;100.00;99577.09;15243012;19;20014;-61
2022/11/27 04:19:46;;;;;;;22.27;12.07;;;;;;;0.28;100.00;99573.50;15310290;19;20018;-62
2022/11/27 04:25:13;;;;;;;22.35;12.23;;;;;;;0.28;100.00;99570.84;15274299;19;20141;-63
2022/11/27 04:30:38;;;;;;;25.20;12.95;;;;;;;0.28;100.00;99584.09;15277355;19;20543;-62
2022/11/27 04:36:02;;;;;;;26.40;14.57;;;;;;;0.30;100.00;99591.97;15273146;19;20022;-61
2022/11/27 04:41:30;;;;;;;30.00;16.23;;;;;;;0.35;100.00;99590.00;15277055;19;20029;-57
2022/11/27 04:46:55;;;;;;;29.25;15.00;;;;;;;0.39;100.00;99580.97;15271707;19;20026;-59
2022/11/27 04:52:19;;;;;;;21.45;11.63;;;;;;;0.26;100.00;99578.00;15271657;19;20417;-60
2022/11/27 04:57:46;;;;;;;25.67;13.07;;;;;;;0.14;100.00;99582.03;15270130;19;20018;-61
2022/11/27 05:03:11;;;;;;;26.77;15.85;;;;;;;0.18;100.00;99593.34;15272659;19;20028;-61
2022/11/27 05:08:36;;;;;;;29.08;15.70;;;;;;;0.19;100.00;99594.25;15273462;19;20476;-61
2022/11/27 05:14:19;;;;;;;32.33;17.83;;;;;;;0.23;100.00;99598.50;15268134;19;20471;-57
2022/11/27 05:19:44;;;;;;;32.83;17.10;;;;;;;0.26;100.00;99598.34;15271750;19;20032;-60
2022/11/27 05:25:09;;;;;;;28.30;15.43;;;;;;;0.21;100.00;99603.00;15271990;19;20014;-58
2022/11/27 05:30:36;;;;;;;28.05;15.10;;;;;;;0.18;100.00;99603.97;15275185;19;20085;-60
2022/11/27 05:36:01;;;;;;;26.25;15.70;;;;;;;0.15;100.00;99593.50;15269048;19;20014;-57
2022/11/27 05:41:25;;;;;;;27.15;15.50;;;;;;;0.09;100.00;99585.81;15271545;19;20027;-58
2022/11/27 05:46:53;;;;;;;25.83;14.32;;;;;;;0.04;100.00;99577.22;15273710;19;20019;-61
2022/11/27 05:52:17;;;;;;;29.58;16.00;;;;;;;-0.02;100.00;99571.25;15265746;19;20022;-61
2022/11/27 05:57:42;;;;;;;33.40;17.63;;;;;;;-0.04;100.00;99566.94;15267132;19;20025;-61
2022/11/27 06:03:09;;;;;;;26.98;16.27;;;;;;;-0.05;100.00;99575.81;15270234;19;20436;-59
2022/11/27 06:08:34;;;;;;;29.88;16.92;;;;;;;-0.09;100.00;99569.78;15264471;19;20667;-60
2022/11/27 06:13:58;;;;;;;32.95;16.70;;;;;;;-0.19;100.00;99573.75;15263431;19;20026;-60
2022/11/27 06:19:26;;;;;;;34.90;17.35;;;;;;;-0.26;100.00;99566.97;15265668;19;20025;-58
2022/11/27 06:24:50;;;;;;;34.10;18.52;;;;;;;-0.30;100.00;99576.00;15266368;19;20021;-57
2022/11/27 06:30:17;;;;;;;36.53;19.45;;;;;;;-0.28;100.00;99584.72;15268700;19;20023;-58
2022/11/27 06:35:44;;;;;;;36.47;18.58;;;;;;;-0.33;100.00;99564.59;15263281;19;20021;-59
2022/11/27 06:41:14;;;;;;;36.05;19.48;;;;;;;-0.32;100.00;99557.50;15268547;19;20018;-61
2022/11/27 06:46:39;;;;;;;39.17;19.25;;;;;;;-0.35;100.00;99561.16;15268589;19;20337;-59
2022/11/27 06:52:06;;;;;;;40.33;19.52;;;;;;;-0.36;100.00;99551.47;15254926;19;20020;-60
2022/11/27 06:57:30;;;;;;;33.53;19.02;;;;;;;-0.37;100.00;99544.47;15260975;19;20026;-59
2022/11/27 07:02:55;;;;;;;37.25;20.13;;;;;;;-0.39;100.00;99527.78;15259011;19;20019;-59
2022/11/27 07:08:23;;;;;;;38.28;18.95;;;;;;;-0.40;100.00;99531.34;15258080;19;20358;-59
2022/11/27 07:13:49;;;;;;;34.45;19.63;;;;;;;-0.38;100.00;99532.16;15258718;19;20021;-60
2022/11/27 07:19:14;;;;;;;36.83;19.42;;;;;;;-0.36;100.00;99534.75;15266730;19;20029;-60
2022/11/27 07:24:42;;;;;;;32.65;17.90;;;;;;;-0.36;100.00;99527.66;15263234;19;20681;-60
2022/11/27 07:30:08;;;;;;;33.83;18.10;;;;;;;-0.37;100.00;99530.38;15277250;19;20014;-58
2022/11/27 07:35:35;;;;;;;34.25;19.02;;;;;;;-0.38;100.00;99531.31;15276708;19;20421;-58
2022/11/27 07:41:04;;;;;;;32.92;19.25;;;;;;;-0.37;100.00;99527.72;15270767;19;20032;-59
2022/11/27 07:46:31;;;;;;;35.08;19.02;;;;;;;-0.39;100.00;99525.13;15273588;19;20839;-59
2022/11/27 07:51:56;;;;;;;28.48;16.77;;;;;;;-0.44;100.00;99526.25;15271436;19;20027;-61
2022/11/27 07:57:24;;;;;;;24.35;15.50;;;;;;;-0.48;100.00;99528.16;15273135;19;20011;-60
2022/11/27 08:02:48;;;;;;;25.25;15.38;;;;;;;-0.40;100.00;99520.75;15269897;19;20020;-60
2022/11/27 08:08:13;;;;;;;25.08;14.38;;;;;;;-0.34;100.00;99525.81;15272627;19;20085;-60
2022/11/27 08:13:40;;;;;;;21.52;13.85;;;;;;;-0.23;100.00;99513.88;15264951;19;20033;-61
2022/11/27 08:19:06;;;;;;;20.55;13.75;;;;;;;-0.14;100.00;99518.78;15271014;19;20010;-61
2022/11/27 08:24:31;;;;;;;18.75;12.10;;;;;;;-0.03;100.00;99511.22;15269328;19;20014;-59
2022/11/27 08:29:59;;;;;;;18.13;12.25;;;;;;;0.07;100.00;99500.22;15266734;19;20042;-59
2022/11/27 08:35:24;;;;;;;19.45;11.98;;;;;;;0.16;100.00;99486.59;15266304;19;20025;-58
2022/11/27 08:40:48;;;;;;;15.52;11.13;;;;;;;0.24;100.00;99487.09;15271932;19;20016;-61
2022/11/27 08:46:15;;;;;;;15.35;10.32;;;;;;;0.34;100.00;99482.25;15271166;19;20765;-59
2022/11/27 08:51:41;;;;;;;14.80;9.02;;;;;;;0.49;100.00;99480.66;15272783;19;20018;-56
2022/11/27 08:57:07;;;;;;;11.75;8.20;;;;;;;0.64;100.00;99473.78;15271583;19;20024;-56
2022/11/27 09:02:34;;;;;;;10.52;7.13;;;;;;;0.80;100.00;99467.75;15271456;19;20010;-57
2022/11/27 09:08:01;;;;;;;8.18;5.80;;;;;;;0.98;100.00;99476.63;15274473;19;20357;-54
2022/11/27 09:13:26;;;;;;;8.68;5.60;;;;;;;1.14;100.00;99469.59;15270326;19;20361;-57
2022/11/27 09:18:55;;;;;;;10.05;5.72;;;;;;;1.31;100.00;99478.53;15268771;19;20026;-56
2022/11/27 09:24:20;;;;;;;7.55;5.13;;;;;;;1.43;100.00;99463.78;15270991;19;20014;-57
2022/11/27 09:29:44;;;;;;;8.60;4.78;;;;;;;1.61;100.00;99462.88;15271613;19;20024;-59
2022/11/27 09:35:13;;;;;;;10.07;4.82;;;;;;;1.78;100.00;99456.69;15198923;19;20018;-57
2022/11/27 09:40:39;;;;;;;9.43;4.57;;;;;;;1.95;100.00;99444.28;15267393;19;20043;-57
2022/11/27 09:46:10;;;;;;;9.30;4.18;;;;;;;2.23;100.00;99451.66;15271905;19;20070;-51
2022/11/27 09:51:44;;;;;;;6.38;3.35;;;;;;;2.55;100.00;99451.69;15260676;19;20015;-51
2022/11/27 09:57:10;;;;;;;7.25;3.60;;;;;;;2.87;100.00;99426.91;15267267;19;20014;-50
2022/11/27 10:02:38;;;;;;;6.35;3.38;;;;;;;3.18;100.00;99402.00;15267110;19;20025;-54
2022/11/27 10:08:28;;;;;;;6.68;3.60;;;;;;;3.36;100.00;99378.75;15269577;19;20027;-60
2022/11/27 10:14:19;;;;;;;5.73;3.40;;;;;;;3.67;100.00;99350.25;15268045;19;21062;-59
2022/11/27 10:19:53;;;;;;;7.33;3.20;;;;;;;3.99;100.00;99334.06;15265912;19;20015;-59
2022/11/27 10:25:23;;;;;;;6.18;2.80;;;;;;;4.37;100.00;99313.88;15257484;19;20011;-59
2022/11/27 10:30:55;;;;;;;4.90;2.80;;;;;;;4.54;100.00;99307.44;15268739;19;20021;-58
2022/11/27 10:36:31;;;;;;;8.32;3.00;;;;;;;4.63;100.00;99301.50;15267536;19;20089;-61
2022/11/27 10:42:07;;;;;;;5.53;2.80;;;;;;;4.78;100.00;99296.06;15265254;19;20034;-58
2022/11/27 10:47:33;;;;;;;4.93;3.20;;;;;;;4.82;100.00;99278.91;15270178;19;20014;-58
2022/11/27 10:53:02;;;;;;;4.25;3.25;;;;;;;4.91;100.00;99280.09;15272141;19;20102;-58
2022/11/27 10:58:35;;;;;;;7.22;3.08;;;;;;;5.02;100.00;99263.34;15272998;19;20015;-58
2022/11/27 11:04:13;;;;;;;5.53;3.08;;;;;;;5.14;100.00;99246.47;15273411;19;20027;-55
2022/11/27 11:09:58;;;;;;;6.20;3.17;;;;;;;5.30;100.00;99246.25;15170479;19;2004304;-56
2022/11/27 11:15:33;;;;;;;4.47;2.75;;;;;;;5.41;100.00;99232.16;15273769;19;20027;-54
2022/11/27 11:21:01;;;;;;;4.63;2.97;;;;;;;5.50;100.00;99220.78;15277196;19;20013;-59
2022/11/27 11:26:34;;;;;;;5.53;3.03;;;;;;;5.62;100.00;99223.56;15278330;19;20014;-59
2022/11/27 11:32:10;;;;;;;5.32;3.10;;;;;;;5.72;100.00;99219.25;15276974;19;20014;-57
2022/11/27 11:37:38;;;;;;;6.47;3.40;;;;;;;5.81;100.00;99213.25;15274338;19;20033;-57
2022/11/27 11:43:08;;;;;;;6.13;3.13;;;;;;;5.98;100.00;99203.13;15273160;19;20018;-59
2022/11/27 11:48:36;;;;;;;5.87;2.80;;;;;;;6.15;100.00;99191.22;15279641;19;20093;-56
2022/11/27 11:54:14;;;;;;;5.70;2.72;;;;;;;6.27;100.00;99171.56;15274890;19;20022;-59
2022/11/27 11:59:50;;;;;;;5.35;2.70;;;;;;;6.44;100.00;99159.59;15272838;19;20021;-59
2022/11/27 12:05:29;;;;;;;6.35;2.70;;;;;;;6.55;100.00;99153.44;15268509;19;20018;-57
2022/11/27 12:11:05;;;;;;;6.80;2.60;;;;;;;6.72;100.00;99143.22;15272504;19;20470;-58
2022/11/27 12:16:44;;;;;;;5.35;2.45;;;;;;;6.85;100.00;99133.28;15275772;19;20014;-56
2022/11/27 12:22:25;;;;;;;5.20;2.60;;;;;;;6.97;100.00;99126.09;15273512;19;20011;-58
2022/11/27 12:28:03;;;;;;;5.03;2.63;;;;;;;7.04;100.00;99127.31;15271291;19;20040;-59
2022/11/27 12:33:40;;;;;;;4.13;2.30;;;;;;;7.19;100.00;99119.88;15261802;19;20346;-53
2022/11/27 12:39:23;;;;;;;5.70;2.70;;;;;;;7.24;100.00;99111.47;15269533;19;20101;-55
2022/11/27 12:44:58;;;;;;;;;;;;;;;7.16;100.00;99098.72;15268910;19;20081;-55
2022/11/27 12:50:29;;;;;;;5.07;2.47;;;;;;;7.27;100.00;99089.78;15269156;19;20339;-58
2022/11/27 12:56:07;;;;;;;3.43;2.03;;;;;;;7.29;100.00;99093.19;15266449;19;20002;-54
2022/11/27 13:01:37;;;;;;;3.60;2.20;;;;;;;7.29;100.00;99087.00;15269699;19;20017;-56
2022/11/27 13:07:09;;;;;;;4.87;3.10;;;;;;;7.27;100.00;99070.19;15263692;19;20015;-56
2022/11/27 13:12:42;;;;;;;4.17;2.30;;;;;;;7.16;100.00;99053.16;15265131;19;20029;-57
2022/11/27 13:18:24;;;;;;;3.22;2.00;;;;;;;7.14;100.00;99046.19;15266195;19;20015;-54
2022/11/27 13:23:49;;;;;;;;;;;;;;;7.01;100.00;99057.91;15270868;19;20018;-56
2022/11/27 13:29:25;;;;;;;3.47;2.30;;;;;;;7.07;100.00;99067.28;15271292;19;19982;-56
2022/11/27 13:34:51;;;;;;;4.28;2.63;;;;;;;7.04;100.00;99060.34;15267051;19;20415;-58
2022/11/27 13:40:29;;;;;;;5.50;2.95;;;;;;;7.13;100.00;99052.53;15260381;19;20485;-56
2022/11/27 13:46:04;;;;;;;4.03;1.80;;;;;;;7.28;100.00;99053.13;15269628;19;20014;-56
2022/11/27 13:51:35;;;;;;;3.50;1.90;;;;;;;7.36;100.00;99050.66;15268024;19;20025;-52
2022/11/27 13:57:11;;;;;;;4.00;2.00;;;;;;;7.19;100.00;99038.66;15266592;19;20010;-57
2022/11/27 14:02:51;;;;;;;10.38;6.78;;;;;;;7.15;100.00;99032.69;15264331;19;20025;-55
2022/11/27 14:08:23;;;;;;;4.07;2.63;;;;;;;7.08;100.00;99037.69;15259893;19;20468;-58
2022/11/27 14:13:50;;;;;;;30.35;25.55;;;;;;;7.05;100.00;99031.72;15262383;19;20014;-57
2022/11/27 14:19:37;;;;;;;4.63;2.80;;;;;;;6.94;100.00;99029.91;15268030;19;20085;-55
2022/11/27 14:25:02;;;;;;;3.35;2.10;;;;;;;6.83;100.00;99027.22;15258510;19;20096;-57
2022/11/27 14:30:33;;;;;;;3.83;1.98;;;;;;;6.75;100.00;99030.53;15280223;19;20375;-56
2022/11/27 14:36:03;;;;;;;4.90;2.05;;;;;;;6.61;100.00;99021.75;15276837;19;20034;-57
2022/11/27 14:41:30;;;;;;;3.42;1.75;;;;;;;6.53;100.00;99020.63;15270155;19;20014;-57
2022/11/27 14:46:57;;;;;;;4.43;1.88;;;;;;;6.39;100.00;99009.22;15280369;19;20011;-59
2022/11/27 14:52:26;;;;;;;2.72;1.40;;;;;;;6.30;100.00;99009.91;15275240;19;20027;-57
2022/11/27 14:57:52;;;;;;;3.40;1.60;;;;;;;6.16;100.00;99002.97;15273356;19;20579;-59
2022/11/27 15:03:18;;;;;;;3.90;1.70;;;;;;;6.06;100.00;98991.28;15275710;19;20021;-57
2022/11/27 15:08:49;;;;;;;5.53;2.72;;;;;;;5.95;100.00;98984.03;15278450;19;20022;-56
2022/11/27 15:14:35;;;;;;;3.40;1.90;;;;;;;5.86;100.00;98969.56;15266906;19;20018;-57
2022/11/27 15:20:02;;;;;;;5.20;2.03;;;;;;;5.75;100.00;98958.84;15276771;19;20016;-58
2022/11/27 15:25:44;;;;;;;4.85;2.38;;;;;;;5.63;100.00;98958.81;15272148;19;20085;-57
2022/11/27 15:31:25;;;;;;;3.63;2.03;;;;;;;5.55;100.00;98947.84;15271448;19;20028;-56
2022/11/27 15:36:52;;;;;;;3.05;2.20;;;;;;;5.50;100.00;98939.31;15273126;19;20036;-56
2022/11/27 15:42:22;;;;;;;3.92;2.30;;;;;;;5.43;100.00;98935.41;15272530;19;20050;-54
2022/11/27 15:47:53;;;;;;;4.13;2.33;;;;;;;5.36;100.00;98935.88;15269494;19;20022;-58
2022/11/27 15:53:18;;;;;;;3.50;2.20;;;;;;;5.30;100.00;98928.31;15271916;19;20077;-55
2022/11/27 15:58:46;;;;;;;3.80;2.42;;;;;;;5.22;100.00;98912.88;15271590;19;20347;-66
2022/11/27 16:04:11;;;;;;;3.65;2.58;;;;;;;5.14;100.00;98928.59;15271656;19;20050;-57
2022/11/27 16:09:35;;;;;;;3.58;2.67;;;;;;;5.07;100.00;98919.34;15276799;19;20049;-58
2022/11/27 16:15:09;;;;;;;5.57;3.33;;;;;;;5.00;100.00;98910.09;15262463;19;20014;-53
2022/11/27 16:20:35;;;;;;;3.97;3.58;;;;;;;4.91;100.00;98909.78;15257296;19;20019;-52
2022/11/27 16:25:59;;;;;;;4.45;3.10;;;;;;;4.83;100.00;98903.31;15274394;19;20029;-52
2022/11/27 16:31:27;;;;;;;4.50;3.10;;;;;;;4.72;100.00;98888.09;15269178;19;20449;-55
2022/11/27 16:36:52;;;;;;;8.05;3.30;;;;;;;4.65;100.00;98878.81;15267052;19;20505;-53
2022/11/27 16:42:18;;;;;;;4.57;3.22;;;;;;;4.53;100.00;98867.25;15265974;19;20011;-51
2022/11/27 16:47:45;;;;;;;4.82;3.00;;;;;;;4.48;100.00;98856.91;15266828;19;20506;-57
2022/11/27 16:53:10;;;;;;;3.78;3.00;;;;;;;4.41;100.00;98855.66;15263222;19;20014;-52
2022/11/27 16:58:40;;;;;;;3.40;3.10;;;;;;;4.34;100.00;98841.03;15260460;19;20564;-52
2022/11/27 17:04:10;;;;;;;4.18;3.13;;;;;;;4.29;100.00;98833.38;15266470;19;20034;-51
2022/11/27 17:09:37;;;;;;;3.95;3.08;;;;;;;4.25;100.00;98824.75;15267713;19;20251;-54
2022/11/27 17:15:02;;;;;;;3.50;3.10;;;;;;;4.16;100.00;98828.09;15266553;19;20018;-52
2022/11/27 17:20:29;;;;;;;4.03;3.30;;;;;;;4.12;100.00;98832.75;15263705;19;20528;-50
2022/11/27 17:25:54;;;;;;;4.07;3.40;;;;;;;4.04;100.00;98850.28;15261110;19;20011;-52
2022/11/27 17:31:20;;;;;;;3.90;3.50;;;;;;;3.98;100.00;98854.25;15270357;19;20022;-52
2022/11/27 17:36:52;;;;;;;4.82;3.78;;;;;;;3.93;100.00;98859.91;15271007;19;20020;-55
2022/11/27 17:42:17;;;;;;;4.22;3.80;;;;;;;3.89;100.00;98868.19;15270895;19;20015;-55
2022/11/27 17:47:42;;;;;;;4.53;3.80;;;;;;;3.83;100.00;98872.16;15249537;19;20019;-55
2022/11/27 17:53:09;;;;;;;4.30;3.90;;;;;;;3.77;100.00;98849.44;15242603;19;20014;-55
2022/11/27 17:58:34;;;;;;;4.75;4.00;;;;;;;3.76;100.00;98842.44;15233766;19;20045;-55
2022/11/27 18:04:04;;;;;;;5.20;4.18;;;;;;;3.74;100.00;98848.81;15242165;19;20789;-52
2022/11/27 18:09:31;;;;;;;4.35;3.95;;;;;;;3.69;100.00;98831.34;15240086;19;20029;-54
2022/11/27 18:14:59;;;;;;;4.20;3.80;;;;;;;3.65;100.00;98808.53;15244527;19;20074;-54
2022/11/27 18:20:24;;;;;;;4.32;3.92;;;;;;;3.62;100.00;98808.75;15241015;19;20061;-54
2022/11/27 18:25:51;;;;;;;4.57;4.00;;;;;;;3.61;100.00;98809.69;15219928;19;20018;-53
2022/11/27 18:31:18;;;;;;;4.57;3.90;;;;;;;3.60;100.00;98799.16;15242617;19;20039;-53
2022/11/27 18:36:44;;;;;;;3.95;3.65;;;;;;;3.58;100.00;98799.28;15239803;19;20011;-53
2022/11/27 18:42:14;;;;;;;4.07;3.72;;;;;;;3.57;100.00;98794.91;15244634;19;20098;-53
2022/11/27 18:47:39;;;;;;;4.07;3.67;;;;;;;3.54;100.00;98795.13;15240374;19;20094;-56
2022/11/27 18:53:04;;;;;;;4.20;3.80;;;;;;;3.50;100.00;98796.28;15241903;19;20014;-53
2022/11/27 18:58:33;;;;;;;4.07;3.67;;;;;;;3.51;100.00;98790.00;15233557;19;20010;-55
2022/11/27 19:04:01;;;;;;;4.70;3.80;;;;;;;3.48;100.00;98780.41;15237498;19;20557;-55
2022/11/27 19:09:27;;;;;;;4.05;3.65;;;;;;;3.48;100.00;98769.75;15240101;19;20036;-54
2022/11/27 19:14:54;;;;;;;3.90;3.60;;;;;;;3.48;100.00;98775.09;15250780;19;20029;-55
2022/11/27 19:20:20;;;;;;;4.75;4.18;;;;;;;3.47;100.00;98767.22;15245009;19;20371;-53
2022/11/27 19:25:47;;;;;;;4.72;3.65;;;;;;;3.50;100.00;98751.00;15250637;19;20014;-54
2022/11/27 19:31:19;;;;;;;3.95;3.47;;;;;;;3.49;100.00;98759.94;15249317;19;20043;-58
2022/11/27 19:36:45;;;;;;;4.05;3.55;;;;;;;3.50;100.00;98756.31;15253137;19;20021;-52
2022/11/27 19:42:14;;;;;;;4.28;3.67;;;;;;;3.49;100.00;98750.16;15269038;19;20022;-52
2022/11/27 19:47:43;;;;;;;3.53;3.22;;;;;;;3.48;100.00;98740.47;15267195;19;20018;-50
2022/11/27 19:53:08;;;;;;;3.67;3.38;;;;;;;3.52;100.00;98722.44;15271765;19;20028;-50
2022/11/27 19:58:34;;;;;;;4.85;3.70;;;;;;;3.53;100.00;98714.34;15267037;19;20019;-51
2022/11/27 20:04:02;;;;;;;3.97;3.50;;;;;;;3.54;100.00;98701.88;15264482;19;20035;-50
2022/11/27 20:09:27;;;;;;;3.30;3.00;;;;;;;3.54;100.00;98699.22;15273672;19;20025;-48
2022/11/27 20:14:52;;;;;;;3.55;3.10;;;;;;;3.57;100.00;98691.00;15272055;19;20015;-51
2022/11/27 20:20:20;;;;;;;3.40;3.10;;;;;;;3.52;100.00;98686.03;15267976;19;20396;-50
2022/11/27 20:25:51;;;;;;;3.47;2.88;;;;;;;3.55;100.00;98680.44;15268672;19;20015;-53
2022/11/27 20:31:21;;;;;;;3.30;3.00;;;;;;;3.54;100.00;98677.91;15272928;19;20018;-52
2022/11/27 20:36:50;;;;;;;;;;;;;;;3.49;100.00;98672.03;15265223;19;20007;-48
2022/11/27 20:42:15;;;;;;;4.05;3.25;;;;;;;3.52;100.00;98669.16;15271214;19;19935;-52
2022/11/27 20:47:40;;;;;;;3.78;3.10;;;;;;;3.52;100.00;98655.84;15263469;19;20222;-50
2022/11/27 20:53:08;;;;;;;3.47;3.17;;;;;;;3.48;100.00;98651.69;15268644;19;20353;-50
2022/11/27 20:58:32;;;;;;;3.53;2.80;;;;;;;3.48;100.00;98641.03;15263697;19;20746;-51
2022/11/27 21:03:59;;;;;;;3.28;2.83;;;;;;;3.44;100.00;98635.09;15266445;19;20006;-50
2022/11/27 21:09:28;;;;;;;3.92;2.60;;;;;;;3.39;100.00;98627.44;15266701;19;20092;-52
2022/11/27 21:14:54;;;;;;;3.03;2.75;;;;;;;3.37;100.00;98632.00;15268138;19;20018;-51
2022/11/27 21:20:20;;;;;;;3.90;2.83;;;;;;;3.36;100.00;98627.63;15261202;19;20029;-51
2022/11/27 21:25:47;;;;;;;2.80;2.60;;;;;;;3.32;100.00;98620.84;15266055;19;20022;-51
2022/11/27 21:31:16;;;;;;;2.90;2.67;;;;;;;3.30;100.00;98612.13;15268165;19;20015;-53
2022/11/27 21:36:42;;;;;;;3.13;2.75;;;;;;;3.23;100.00;98601.06;15263844;19;20014;-50
2022/11/27 21:42:10;;;;;;;2.70;2.50;;;;;;;3.22;100.00;98598.53;15263639;19;20018;-51
2022/11/27 21:47:37;;;;;;;5.57;3.20;;;;;;;3.20;100.00;98589.78;15264976;19;20034;-52
2022/11/27 21:53:01;;;;;;;4.55;3.40;;;;;;;3.19;100.00;98598.72;15268220;19;20022;-51
2022/11/27 21:58:32;;;;;;;3.30;3.00;;;;;;;3.17;100.00;98600.66;15261900;19;20018;-50
2022/11/27 22:03:57;;;;;;;4.88;3.20;;;;;;;3.20;100.00;98590.63;15266778;19;20122;-52
2022/11/27 22:09:23;;;;;;;3.75;3.30;;;;;;;3.21;100.00;98588.81;15268173;19;20845;-51
2022/11/27 22:14:50;;;;;;;5.15;3.58;;;;;;;3.21;100.00;98584.34;15268308;19;20544;-52
2022/11/27 22:20:23;;;;;;;4.78;3.53;;;;;;;3.23;100.00;98573.59;15264841;19;20011;-51
2022/11/27 22:25:49;;;;;;;3.78;3.47;;;;;;;3.22;100.00;98571.91;15267247;19;20046;-52
2022/11/27 22:31:21;;;;;;;3.53;3.22;;;;;;;3.20;100.00;98573.81;15263961;19;20041;-51
2022/11/27 22:36:48;;;;;;;3.40;3.10;;;;;;;3.23;100.00;98568.28;15261844;19;20023;-51
2022/11/27 22:42:19;;;;;;;3.67;3.22;;;;;;;3.18;100.00;98559.75;15287846;19;20019;-83
2022/11/27 22:47:47;;;;;;;5.13;3.07;;;;;;;3.19;100.00;98553.47;15302426;19;20429;-83
2022/11/27 22:53:12;;;;;;;3.67;2.90;;;;;;;3.21;100.00;98543.56;15310682;19;20026;-83
2022/11/27 22:58:37;;;;;;;3.20;2.90;;;;;;;3.21;100.00;98546.22;15302388;19;20022;-83
2022/11/27 23:04:07;;;;;;;3.28;2.97;;;;;;;3.21;100.00;98546.22;15302380;19;20039;-83
2022/11/27 23:09:32;;;;;;;3.38;3.03;;;;;;;3.21;100.00;98538.25;15294333;19;20014;-84
2022/11/27 23:14:58;;;;;;;3.13;2.90;;;;;;;3.20;100.00;98517.91;15294168;19;20026;-84
2022/11/27 23:20:26;;;;;;;2.95;2.72;;;;;;;3.20;100.00;98515.22;15284329;19;20359;-83
2022/11/27 23:25:50;;;;;;;3.33;2.90;;;;;;;3.19;100.00;98510.88;15291418;19;20010;-83
2022/11/27 23:31:17;;;;;;;3.25;2.95;;;;;;;3.22;100.00;98502.66;15289316;19;20018;-83
2022/11/27 23:36:51;;;;;;;3.03;2.67;;;;;;;3.25;100.00;98502.41;15289156;19;20088;-83
2022/11/27 23:42:22;;;;;;;3.22;2.70;;;;;;;3.24;100.00;98496.25;15283489;19;20017;-84
2022/11/27 23:47:49;;;;;;;2.73;2.53;;;;;;;3.28;100.00;98480.91;15308554;19;20047;-84
2022/11/27 23:53:16;;;;;;;3.38;2.70;;;;;;;3.29;100.00;98474.63;15337018;19;20019;-84
2022/11/27 23:58:41;;;;;;;2.92;2.60;;;;;;;3.32;100.00;98479.72;15286942;19;20459;-83
